createdAt,value
2022-09-23T00:01:21.252Z,12.40
2022-09-23T00:03:49.279Z,13.70
2022-09-23T00:06:22.069Z,11.80
2022-09-23T00:08:51.455Z,12.50
2022-09-23T00:11:22.269Z,10.70
2022-09-23T00:13:53.008Z,10.00
2022-09-23T00:16:28.554Z,12.30
2022-09-23T00:18:56.722Z,9.70
2022-09-23T00:21:25.223Z,10.40
2022-09-23T00:23:53.310Z,10.90
2022-09-23T00:26:22.673Z,15.00
2022-09-23T00:28:51.774Z,14.40
2022-09-23T00:31:25.379Z,10.50
2022-09-23T00:33:58.765Z,11.90
2022-09-23T00:36:28.569Z,11.00
2022-09-23T00:38:56.795Z,9.90
2022-09-23T00:41:25.644Z,11.70
2022-09-23T00:43:56.722Z,10.10
2022-09-23T00:46:43.514Z,11.30
2022-09-23T00:49:21.217Z,11.40
2022-09-23T00:51:58.716Z,10.70
2022-09-23T00:54:27.675Z,10.60
2022-09-23T00:56:57.496Z,10.40
2022-09-23T00:59:26.323Z,12.20
2022-09-23T01:01:57.134Z,8.90
2022-09-23T01:04:27.246Z,12.20
2022-09-23T01:06:54.892Z,10.50
2022-09-23T01:09:24.027Z,8.70
2022-09-23T01:12:04.696Z,9.10
2022-09-23T01:15:04.340Z,8.90
2022-09-23T01:17:53.079Z,8.40
2022-09-23T01:20:52.645Z,9.80
2022-09-23T01:23:36.140Z,12.40
2022-09-23T01:26:22.782Z,12.10
2022-09-23T01:29:07.346Z,8.80
2022-09-23T01:31:58.076Z,8.00
2022-09-23T01:34:42.126Z,8.80
2022-09-23T01:37:17.685Z,7.60
2022-09-23T01:39:58.126Z,7.70
2022-09-23T01:42:42.867Z,8.70
2022-09-23T01:45:19.658Z,8.20
2022-09-23T01:48:19.371Z,8.60
2022-09-23T01:51:04.688Z,10.20
2022-09-23T01:53:44.444Z,9.70
2022-09-23T01:56:54.490Z,10.70
2022-09-23T01:59:39.127Z,8.90
2022-09-23T02:02:15.167Z,8.90
2022-09-23T02:04:56.891Z,8.40
2022-09-23T02:07:29.997Z,9.80
2022-09-23T02:10:07.243Z,8.90
2022-09-23T02:12:38.308Z,9.30
2022-09-23T02:15:10.365Z,13.00
2022-09-23T02:17:54.874Z,11.00
2022-09-23T02:20:29.538Z,18.00
2022-09-23T02:23:12.075Z,28.60
2022-09-23T02:26:08.607Z,11.90
2022-09-23T02:29:04.008Z,12.40
2022-09-23T02:31:42.096Z,10.10
2022-09-23T02:34:28.666Z,9.90
2022-09-23T02:37:08.456Z,10.40
2022-09-23T02:39:48.523Z,8.80
2022-09-23T02:42:22.042Z,10.90
2022-09-23T02:44:50.199Z,10.20
2022-09-23T02:47:24.032Z,12.30
2022-09-23T02:52:19.506Z,13.20
2022-09-23T02:54:47.234Z,10.30
2022-09-23T02:57:15.090Z,9.90
2022-09-23T02:59:43.254Z,10.40
2022-09-23T03:02:42.589Z,10.40
2022-09-23T03:05:33.245Z,9.60
2022-09-23T03:08:33.110Z,10.80
2022-09-23T03:11:07.100Z,11.50
2022-09-23T03:13:47.570Z,13.70
2022-09-23T03:16:35.121Z,10.70
2022-09-23T03:19:33.885Z,13.50
2022-09-23T03:22:20.310Z,11.90
2022-09-23T03:24:53.854Z,9.00
2022-09-23T03:29:54.032Z,11.50
2022-09-23T03:32:24.961Z,9.80
2022-09-23T03:34:54.985Z,8.10
2022-09-23T03:37:41.523Z,7.70
2022-09-23T03:40:19.310Z,7.70
2022-09-23T03:42:49.036Z,7.80
2022-09-23T03:45:26.068Z,8.40
2022-09-23T03:47:53.801Z,9.80
2022-09-23T03:50:22.130Z,9.00
2022-09-23T03:52:50.512Z,12.30
2022-09-23T03:55:19.741Z,12.40
2022-09-23T03:57:47.881Z,14.70
2022-09-23T04:00:16.198Z,10.70
2022-09-23T04:02:44.548Z,8.80
2022-09-23T04:05:13.359Z,9.00
2022-09-23T04:07:41.308Z,9.10
2022-09-23T04:10:10.751Z,8.50
2022-09-23T04:12:38.487Z,9.40
2022-09-23T04:15:07.125Z,14.90
2022-09-23T04:17:34.894Z,13.10
2022-09-23T04:20:03.233Z,14.00
2022-09-23T04:22:33.139Z,12.10
2022-09-23T04:25:00.914Z,11.40
2022-09-23T04:27:28.636Z,15.10
2022-09-23T04:29:56.331Z,11.60
2022-09-23T04:32:24.807Z,11.60
2022-09-23T04:34:52.521Z,9.50
2022-09-23T04:37:20.334Z,9.80
2022-09-23T04:39:48.005Z,10.20
2022-09-23T04:42:15.824Z,8.80
2022-09-23T04:44:43.574Z,8.20
2022-09-23T04:47:11.368Z,9.90
2022-09-23T04:49:39.149Z,9.60
2022-09-23T04:52:07.344Z,11.80
2022-09-23T04:54:35.160Z,8.90
2022-09-23T04:57:02.925Z,9.60
2022-09-23T04:59:30.640Z,11.30
2022-09-23T05:01:58.440Z,10.70
2022-09-23T05:04:26.271Z,10.00
2022-09-23T05:06:54.019Z,10.00
2022-09-23T05:09:21.740Z,9.60
2022-09-23T05:11:49.415Z,9.50
2022-09-23T05:14:17.265Z,10.40
2022-09-23T05:16:45.229Z,9.60
2022-09-23T05:19:13.528Z,11.20
2022-09-23T05:21:41.396Z,9.70
2022-09-23T05:24:09.765Z,10.90
2022-09-23T05:26:38.344Z,11.80
2022-09-23T05:29:06.474Z,10.80
2022-09-23T05:31:35.065Z,9.70
2022-09-23T05:34:05.665Z,12.70
2022-09-23T05:36:38.768Z,10.80
2022-09-23T05:39:08.549Z,8.80
2022-09-23T05:41:36.816Z,10.80
2022-09-23T05:44:04.967Z,10.20
2022-09-23T05:46:33.738Z,9.10
2022-09-23T05:49:03.547Z,9.60
2022-09-23T05:51:35.932Z,9.40
2022-09-23T05:54:05.534Z,9.00
2022-09-23T05:56:35.079Z,10.30
2022-09-23T05:59:04.558Z,10.40
2022-09-23T06:01:35.492Z,12.60
2022-09-23T06:04:06.351Z,12.60
2022-09-23T06:06:41.395Z,13.60
2022-09-23T06:09:13.802Z,11.60
2022-09-23T06:11:42.453Z,11.60
2022-09-23T06:14:14.829Z,10.50
2022-09-23T06:16:43.203Z,11.00
2022-09-23T06:19:13.049Z,10.70
2022-09-23T06:21:42.754Z,9.90
2022-09-23T06:24:14.766Z,11.90
2022-09-23T06:26:44.981Z,11.90
2022-09-23T06:29:13.036Z,14.50
2022-09-23T06:31:42.270Z,13.70
2022-09-23T06:34:13.745Z,15.90
2022-09-23T06:36:45.927Z,14.30
2022-09-23T06:39:15.373Z,15.90
2022-09-23T06:41:44.815Z,13.70
2022-09-23T06:44:15.649Z,11.40
2022-09-23T06:46:44.447Z,12.70
2022-09-23T06:49:13.587Z,11.30
2022-09-23T06:51:41.745Z,11.60
2022-09-23T06:54:11.146Z,11.40
2022-09-23T06:56:40.158Z,10.90
2022-09-23T06:59:12.917Z,10.50
2022-09-23T07:01:41.238Z,11.30
2022-09-23T07:04:10.603Z,10.30
2022-09-23T07:06:39.072Z,10.10
2022-09-23T07:09:08.594Z,9.50
2022-09-23T07:11:37.023Z,9.90
2022-09-23T07:14:05.398Z,9.80
2022-09-23T07:16:34.370Z,10.40
2022-09-23T07:19:02.597Z,11.60
2022-09-23T07:21:31.197Z,10.20
2022-09-23T07:23:59.210Z,9.40
2022-09-23T07:26:27.128Z,10.60
2022-09-23T07:28:56.851Z,8.90
2022-09-23T07:31:37.588Z,8.30
2022-09-23T07:34:11.592Z,9.30
2022-09-23T07:36:43.527Z,8.70
2022-09-23T07:39:13.358Z,9.00
2022-09-23T07:41:44.921Z,7.70
2022-09-23T07:44:15.700Z,9.10
2022-09-23T07:46:43.676Z,7.20
2022-09-23T07:49:11.579Z,7.70
2022-09-23T07:51:41.178Z,6.70
2022-09-23T07:54:14.193Z,6.90
2022-09-23T07:56:43.381Z,7.30
2022-09-23T07:59:15.452Z,7.00
2022-09-23T08:01:46.278Z,7.00
2022-09-23T08:04:17.118Z,7.00
2022-09-23T08:06:54.192Z,7.20
2022-09-23T08:09:24.978Z,7.80
2022-09-23T08:11:53.402Z,6.30
2022-09-23T08:14:23.331Z,7.20
2022-09-23T08:16:52.156Z,6.70
2022-09-23T08:19:20.380Z,6.90
2022-09-23T08:21:50.288Z,5.40
2022-09-23T08:24:20.836Z,6.60
2022-09-23T08:26:49.066Z,6.00
2022-09-23T08:29:19.068Z,6.10
2022-09-23T08:31:47.182Z,5.70
2022-09-23T08:34:15.747Z,6.50
2022-09-23T08:36:45.091Z,6.10
2022-09-23T08:39:15.290Z,6.70
2022-09-23T08:41:59.427Z,5.20
2022-09-23T08:44:37.796Z,3.50
2022-09-23T08:47:21.493Z,3.90
2022-09-23T08:52:44.418Z,5.20
2022-09-23T08:55:15.064Z,6.60
2022-09-23T08:58:27.030Z,4.70
2022-09-23T09:01:27.059Z,5.40
2022-09-23T09:03:58.759Z,3.60
2022-09-23T09:06:51.812Z,4.30
2022-09-23T09:12:29.954Z,2.80
2022-09-23T09:15:02.560Z,2.30
2022-09-23T09:17:36.626Z,2.50
2022-09-23T09:20:23.422Z,2.30
2022-09-23T09:23:00.436Z,4.20
2022-09-23T09:25:51.100Z,4.80
2022-09-23T09:28:53.013Z,3.80
2022-09-23T09:31:37.794Z,3.40
2022-09-23T09:34:33.190Z,2.70
2022-09-23T09:37:15.682Z,2.40
2022-09-23T09:39:43.540Z,4.80
2022-09-23T09:42:20.985Z,2.70
2022-09-23T09:44:59.081Z,2.90
2022-09-23T09:47:54.169Z,3.90
2022-09-23T09:50:45.075Z,3.30
2022-09-23T09:53:22.396Z,2.70
2022-09-23T09:56:09.943Z,2.90
2022-09-23T09:58:55.400Z,3.10
2022-09-23T10:01:32.835Z,3.10
2022-09-23T10:04:04.710Z,3.40
2022-09-23T10:06:35.738Z,2.50
2022-09-23T10:09:19.659Z,2.50
2022-09-23T10:14:31.654Z,3.70
2022-09-23T10:17:05.781Z,4.50
2022-09-23T10:19:37.127Z,3.20
2022-09-23T10:22:21.296Z,3.50
2022-09-23T10:24:52.747Z,3.50
2022-09-23T10:27:31.325Z,4.80
2022-09-23T10:30:11.727Z,3.50
2022-09-23T10:32:46.022Z,3.00
2022-09-23T10:35:24.402Z,2.80
2022-09-23T10:38:00.572Z,2.90
2022-09-23T10:41:01.763Z,4.30
2022-09-23T10:44:17.665Z,2.70
2022-09-23T10:47:07.837Z,2.70
2022-09-23T10:50:10.168Z,3.00
2022-09-23T10:52:44.114Z,2.60
2022-09-23T10:55:18.094Z,4.90
2022-09-23T10:57:46.277Z,2.70
2022-09-23T11:00:28.227Z,3.90
2022-09-23T11:03:32.280Z,2.50
2022-09-23T11:06:32.089Z,2.70
2022-09-23T11:09:21.982Z,2.30
2022-09-23T11:12:02.988Z,2.50
2022-09-23T11:14:54.359Z,2.50
2022-09-23T11:17:51.077Z,2.00
2022-09-23T11:20:41.663Z,2.30
2022-09-23T11:23:43.903Z,2.50
2022-09-23T11:26:32.949Z,2.20
2022-09-23T11:29:19.318Z,2.20
2022-09-23T11:32:09.157Z,2.70
2022-09-23T11:35:02.470Z,2.20
2022-09-23T11:37:36.104Z,2.50
2022-09-23T11:43:15.635Z,2.20
2022-09-23T11:46:15.968Z,3.20
2022-09-23T11:48:50.690Z,1.90
2022-09-23T11:51:27.071Z,2.20
2022-09-23T11:54:20.429Z,2.30
2022-09-23T11:57:03.500Z,1.90
2022-09-23T11:59:52.014Z,3.20
2022-09-23T12:03:02.826Z,2.60
2022-09-23T12:05:44.572Z,3.70
2022-09-23T12:08:27.267Z,2.40
2022-09-23T12:11:27.096Z,2.40
2022-09-23T12:14:01.428Z,2.10
2022-09-23T12:17:01.813Z,2.20
2022-09-23T12:20:00.749Z,2.50
2022-09-23T12:22:51.048Z,3.70
2022-09-23T12:25:34.929Z,2.40
2022-09-23T12:30:36.732Z,2.20
2022-09-23T12:33:33.224Z,3.60
2022-09-23T12:36:06.929Z,2.10
2022-09-23T12:38:47.416Z,2.00
2022-09-23T12:41:22.640Z,2.40
2022-09-23T12:44:15.115Z,5.40
2022-09-23T12:46:46.831Z,2.30
2022-09-23T12:49:30.608Z,2.40
2022-09-23T12:52:17.227Z,2.50
2022-09-23T12:54:50.417Z,2.60
2022-09-23T13:00:12.870Z,2.10
2022-09-23T13:03:12.069Z,1.70
2022-09-23T13:06:14.928Z,1.50
2022-09-23T13:08:43.826Z,1.50
2022-09-23T13:11:25.356Z,1.60
2022-09-23T13:13:56.392Z,2.40
2022-09-23T13:16:45.603Z,6.10
2022-09-23T13:19:36.657Z,2.00
2022-09-23T13:22:09.657Z,9.20
2022-09-23T13:24:39.777Z,7.00
2022-09-23T13:27:30.999Z,17.30
2022-09-23T13:30:21.245Z,2.30
2022-09-23T13:35:39.717Z,31.00
2022-09-23T13:38:31.899Z,36.80
2022-09-23T13:41:04.611Z,2.20
2022-09-23T13:43:41.376Z,5.10
2022-09-23T13:46:28.047Z,6.10
2022-09-23T13:48:57.116Z,8.10
2022-09-23T13:51:44.582Z,7.10
2022-09-23T13:54:31.083Z,6.00
2022-09-23T13:57:00.436Z,2.20
2022-09-23T13:59:36.560Z,3.10
2022-09-23T14:02:20.394Z,2.40
2022-09-23T14:04:48.340Z,3.20
2022-09-23T14:07:19.115Z,8.20
2022-09-23T14:09:50.092Z,1.20
2022-09-23T14:12:22.515Z,2.10
2022-09-23T14:14:52.606Z,1.80
2022-09-23T14:17:25.400Z,5.60
2022-09-23T14:19:53.377Z,3.30
2022-09-23T14:22:29.964Z,1.80
2022-09-23T14:24:59.335Z,1.70
2022-09-23T14:27:32.382Z,2.80
2022-09-23T14:30:02.729Z,1.60
2022-09-23T14:32:32.891Z,2.40
2022-09-23T14:35:04.574Z,2.80
2022-09-23T14:37:52.776Z,5.00
2022-09-23T14:40:22.612Z,3.90
2022-09-23T14:42:56.790Z,21.80
2022-09-23T14:45:27.733Z,3.10
2022-09-23T14:48:10.658Z,9.40
2022-09-23T14:50:54.720Z,7.90
2022-09-23T14:53:40.630Z,2.60
2022-09-23T14:56:08.577Z,1.90
2022-09-23T14:58:57.542Z,3.70
2022-09-23T15:01:33.640Z,2.60
2022-09-23T15:04:24.395Z,1.70
2022-09-23T15:06:59.508Z,1.70
2022-09-23T15:09:32.342Z,2.00
2022-09-23T15:12:22.087Z,6.20
2022-09-23T15:14:54.225Z,2.50
2022-09-23T15:17:30.157Z,1.50
2022-09-23T15:20:04.329Z,2.60
2022-09-23T15:22:32.432Z,1.60
2022-09-23T15:25:21.411Z,1.70
2022-09-23T15:28:14.236Z,1.30
2022-09-23T15:30:42.408Z,3.70
2022-09-23T15:33:13.824Z,2.20
2022-09-23T15:35:49.413Z,1.80
2022-09-23T15:38:17.903Z,2.80
2022-09-23T15:40:46.505Z,2.20
2022-09-23T15:43:21.793Z,2.60
2022-09-23T15:45:53.285Z,1.80
2022-09-23T15:48:26.082Z,2.50
2022-09-23T15:50:55.256Z,2.70
2022-09-23T15:53:27.032Z,2.00
2022-09-23T15:55:55.108Z,3.20
2022-09-23T15:58:23.701Z,2.60
2022-09-23T16:00:56.855Z,3.40
2022-09-23T16:06:02.527Z,3.70
2022-09-23T16:08:33.024Z,4.40
2022-09-23T16:11:01.344Z,4.40
2022-09-23T16:13:29.528Z,6.60
2022-09-23T16:15:57.735Z,3.70
2022-09-23T16:18:26.024Z,4.80
2022-09-23T16:20:54.868Z,5.30
2022-09-23T16:23:34.665Z,5.10
2022-09-23T16:26:04.897Z,5.20
2022-09-23T16:28:34.056Z,5.70
2022-09-23T16:31:01.890Z,6.50
2022-09-23T16:33:30.084Z,6.70
2022-09-23T16:36:00.809Z,8.50
2022-09-23T16:38:29.603Z,6.30
2022-09-23T16:41:00.309Z,7.50
2022-09-23T16:43:32.524Z,7.20
2022-09-23T16:46:01.196Z,7.20
2022-09-23T16:48:29.368Z,6.90
2022-09-23T16:50:57.258Z,7.20
2022-09-23T16:53:29.761Z,9.40
2022-09-23T16:56:01.080Z,8.60
2022-09-23T16:58:29.046Z,8.80
2022-09-23T17:01:14.017Z,8.80
2022-09-23T17:03:42.170Z,10.60
2022-09-23T17:06:14.507Z,11.20
2022-09-23T17:08:42.830Z,8.10
2022-09-23T17:11:10.824Z,8.50
2022-09-23T17:13:41.130Z,8.20
2022-09-23T17:16:11.971Z,8.70
2022-09-23T17:18:39.904Z,9.60
2022-09-23T17:21:08.620Z,13.80
2022-09-23T17:23:37.129Z,23.00
2022-09-23T17:26:12.655Z,48.60
2022-09-23T17:28:40.613Z,48.00
2022-09-23T17:31:08.929Z,53.20
2022-09-23T17:33:37.703Z,34.30
2022-09-23T17:36:10.818Z,23.40
2022-09-23T17:38:39.466Z,19.10
2022-09-23T17:41:08.968Z,20.40
2022-09-23T17:43:38.517Z,58.80
2022-09-23T17:46:12.936Z,64.00
2022-09-23T17:48:41.896Z,46.70
2022-09-23T17:51:16.138Z,33.40
2022-09-23T17:53:46.557Z,24.80
2022-09-23T17:56:18.639Z,17.80
2022-09-23T17:58:48.551Z,16.00
2022-09-23T18:01:24.972Z,31.70
2022-09-23T18:04:01.239Z,41.20
2022-09-23T18:06:35.616Z,30.10
2022-09-23T18:09:06.512Z,19.20
2022-09-23T18:11:37.031Z,38.50
2022-09-23T18:14:13.746Z,28.50
2022-09-23T18:16:44.351Z,20.00
2022-09-23T18:19:18.567Z,15.70
2022-09-23T18:21:52.397Z,19.30
2022-09-23T18:24:31.709Z,17.90
2022-09-23T18:27:01.653Z,18.90
2022-09-23T18:29:29.888Z,17.50
2022-09-23T18:31:59.495Z,30.20
2022-09-23T18:34:28.939Z,29.30
2022-09-23T18:36:57.219Z,41.50
2022-09-23T18:39:25.274Z,51.20
2022-09-23T18:41:53.248Z,27.40
2022-09-23T18:44:21.119Z,24.90
2022-09-23T18:46:49.064Z,20.30
2022-09-23T18:49:32.950Z,15.90
2022-09-23T18:52:01.610Z,22.60
2022-09-23T18:54:30.502Z,43.40
2022-09-23T18:56:59.395Z,31.80
2022-09-23T18:59:29.034Z,24.10
2022-09-23T19:01:58.079Z,19.80
2022-09-23T19:04:27.381Z,20.20
2022-09-23T19:06:56.775Z,19.30
2022-09-23T19:09:25.177Z,25.50
2022-09-23T19:11:53.866Z,38.40
2022-09-23T19:14:22.351Z,31.10
2022-09-23T19:16:50.921Z,32.00
2022-09-23T19:19:19.516Z,30.90
2022-09-23T19:21:47.611Z,36.30
2022-09-23T19:24:19.870Z,73.80
2022-09-23T19:26:48.679Z,51.40
2022-09-23T19:29:19.843Z,45.20
2022-09-23T19:31:49.006Z,45.90
2022-09-23T19:34:19.929Z,43.60
2022-09-23T19:36:48.436Z,41.90
2022-09-23T19:39:22.361Z,43.20
2022-09-23T19:41:52.378Z,52.40
2022-09-23T19:44:20.517Z,51.60
2022-09-23T19:46:55.062Z,48.90
2022-09-23T19:49:25.881Z,46.70
2022-09-23T19:51:56.077Z,44.30
2022-09-23T19:54:27.596Z,43.10
2022-09-23T19:56:56.135Z,41.60
2022-09-23T19:59:26.601Z,36.50
2022-09-23T20:01:55.163Z,35.70
2022-09-23T20:04:23.539Z,29.80
2022-09-23T20:06:51.707Z,28.70
2022-09-23T20:09:19.698Z,29.30
2022-09-23T20:11:47.656Z,28.80
2022-09-23T20:14:15.578Z,26.40
2022-09-23T20:16:44.482Z,26.60
2022-09-23T20:19:13.728Z,34.20
2022-09-23T20:21:41.785Z,36.30
2022-09-23T20:24:11.923Z,25.40
2022-09-23T20:26:56.165Z,19.60
2022-09-23T20:29:24.314Z,19.20
2022-09-23T20:31:52.254Z,17.30
2022-09-23T20:34:21.628Z,18.70
2022-09-23T20:36:49.757Z,20.00
2022-09-23T20:39:17.649Z,19.80
2022-09-23T20:41:46.131Z,21.80
2022-09-23T20:44:14.453Z,15.90
2022-09-23T20:46:48.192Z,24.10
2022-09-23T20:49:17.981Z,27.10
2022-09-23T20:51:49.677Z,17.60
2022-09-23T20:54:19.237Z,15.90
2022-09-23T20:56:47.886Z,13.90
2022-09-23T20:59:18.123Z,14.50
2022-09-23T21:01:47.741Z,14.70
2022-09-23T21:04:16.210Z,12.70
2022-09-23T21:06:44.218Z,14.30
2022-09-23T21:09:12.134Z,15.10
2022-09-23T21:11:40.557Z,18.30
2022-09-23T21:14:09.035Z,19.30
2022-09-23T21:16:37.123Z,17.40
2022-09-23T21:19:08.259Z,16.20
2022-09-23T21:21:36.792Z,17.30
2022-09-23T21:24:32.525Z,16.80
2022-09-23T21:26:53.049Z,16.40
2022-09-23T21:29:21.305Z,19.60
2022-09-23T21:31:49.894Z,17.00
2022-09-23T21:34:19.311Z,16.10
2022-09-23T21:36:48.142Z,14.60
2022-09-23T21:39:16.304Z,16.00
2022-09-23T21:41:44.351Z,17.30
2022-09-23T21:44:12.393Z,18.70
2022-09-23T21:46:40.489Z,18.90
2022-09-23T21:49:09.194Z,16.00
2022-09-23T21:51:42.265Z,14.20
2022-09-23T21:54:15.969Z,13.90
2022-09-23T21:56:44.522Z,16.60
2022-09-23T21:59:13.023Z,16.30
2022-09-23T22:01:45.116Z,14.40
2022-09-23T22:04:18.519Z,15.30
2022-09-23T22:06:48.983Z,15.20
2022-09-23T22:09:19.802Z,15.00
2022-09-23T22:12:03.922Z,14.80
2022-09-23T22:17:02.719Z,12.60
2022-09-23T22:19:34.846Z,12.80
2022-09-23T22:22:13.298Z,16.10
2022-09-23T22:24:46.487Z,14.40
2022-09-23T22:27:17.330Z,14.00
2022-09-23T22:30:01.257Z,13.00
2022-09-23T22:32:45.309Z,13.70
2022-09-23T22:35:18.756Z,13.00
2022-09-23T22:37:48.103Z,13.60
2022-09-23T22:40:16.263Z,10.60
2022-09-23T22:42:44.552Z,13.80
2022-09-23T22:45:13.239Z,13.90
2022-09-23T22:47:45.495Z,13.60
2022-09-23T22:50:14.779Z,15.00
2022-09-23T22:52:43.314Z,16.30
2022-09-23T22:55:12.258Z,15.80
2022-09-23T22:57:40.161Z,15.20
2022-09-23T23:00:09.421Z,16.10
2022-09-23T23:02:37.529Z,12.10
2022-09-23T23:05:06.323Z,12.90
2022-09-23T23:07:36.180Z,13.20
2022-09-23T23:10:07.267Z,15.70
2022-09-23T23:12:35.185Z,15.10
2022-09-23T23:15:03.246Z,13.30
2022-09-23T23:17:31.493Z,13.70
2022-09-23T23:19:59.887Z,13.10
2022-09-23T23:22:28.684Z,13.40
2022-09-23T23:24:57.019Z,11.80
2022-09-23T23:27:24.931Z,12.40
2022-09-23T23:29:52.985Z,24.10
2022-09-23T23:32:20.860Z,21.30
2022-09-23T23:34:48.829Z,18.70
2022-09-23T23:37:20.817Z,15.30
2022-09-23T23:39:49.198Z,16.10
2022-09-23T23:42:17.764Z,15.90
2022-09-23T23:44:45.783Z,13.80
2022-09-23T23:47:13.903Z,14.00
2022-09-23T23:49:41.788Z,14.20
2022-09-23T23:52:10.043Z,13.20
2022-09-23T23:54:38.554Z,13.30
2022-09-23T23:57:06.434Z,15.30
2022-09-23T23:59:34.384Z,14.70
